UBBB/BAK METAR and TAF weather

Enter ICAO airport designator
Station Type Date Time Source
UBBB METAR 2021/05/13 00:00 UTC NOAA

UBBB 130000Z 34004KT CAVOK 10/09 Q1015 R88/CLRD// NOSIG


Station Type Date Time Source
UBBB Decoded METAR 2021/05/13 00:00 UTC NOAA

Baku / Bine Airport, Azerbaijan (UBBB) 40-27N 050-04E -1M
May 12, 2021 - 08:00 PM EDT / 2021.05.13 0000 UTC
Wind: from the NNW (340 degrees) at 5 MPH (4 KT):0
Visibility: greater than 7 mile(s):0
Temperature: 50 F (10 C)
Dew Point: 48 F (9 C)
Relative Humidity: 93%
Pressure (altimeter): 29.97 in. Hg (1015 hPa)
ob: UBBB 130000Z 34004KT CAVOK 10/09 Q1015 R88/CLRD// NOSIG
cycle: 0

Station Type Date Time Source
UBBB TAF 2021/05/12 18:24 UTC NOAA

TAF TAF UBBB 121721Z 1218/1318 31005KT CAVOK TX22/1310Z TN10/1301Z
TEMPO 1218/1221 VRB04KT FEW010
TEMPO 1221/1302 VRB04KT 3000 BR FEW007
BECMG 1305/1307 18010KT
TEMPO 1307/1318 21010KT SCT015

Example: see airport list